sensor_id;sensor_type;location;lat;lon;timestamp;P1;durP1;ratioP1;P2;durP2;ratioP2
37349;SDS011;23231;52.358;4.926;2023-02-18T00:03:01;31.60;;;10.30;;
37349;SDS011;23231;52.358;4.926;2023-02-18T00:08:01;39.35;;;10.68;;
37349;SDS011;23231;52.358;4.926;2023-02-18T00:13:02;28.80;;;10.10;;
37349;SDS011;23231;52.358;4.926;2023-02-18T00:18:03;40.72;;;12.32;;
37349;SDS011;23231;52.358;4.926;2023-02-18T00:23:03;32.45;;;11.40;;
37349;SDS011;23231;52.358;4.926;2023-02-18T00:28:04;37.70;;;12.30;;
37349;SDS011;23231;52.358;4.926;2023-02-18T00:33:04;39.88;;;12.82;;
37349;SDS011;23231;52.358;4.926;2023-02-18T00:38:05;42.25;;;12.63;;
37349;SDS011;23231;52.358;4.926;2023-02-18T00:43:05;35.35;;;13.05;;
37349;SDS011;23231;52.358;4.926;2023-02-18T00:48:05;36.60;;;12.93;;
37349;SDS011;23231;52.358;4.926;2023-02-18T00:53:06;42.88;;;14.55;;
37349;SDS011;23231;52.358;4.926;2023-02-18T00:58:06;39.83;;;13.80;;
37349;SDS011;23231;52.358;4.926;2023-02-18T01:03:07;45.22;;;14.13;;
37349;SDS011;23231;52.358;4.926;2023-02-18T01:08:08;39.55;;;13.23;;
37349;SDS011;23231;52.358;4.926;2023-02-18T01:13:09;41.53;;;14.13;;
37349;SDS011;23231;52.358;4.926;2023-02-18T01:18:11;41.80;;;13.73;;
37349;SDS011;23231;52.358;4.926;2023-02-18T01:23:11;47.67;;;15.05;;
37349;SDS011;23231;52.358;4.926;2023-02-18T01:28:12;40.20;;;15.52;;
37349;SDS011;23231;52.358;4.926;2023-02-18T01:33:13;41.83;;;16.02;;
37349;SDS011;23231;52.358;4.926;2023-02-18T01:38:14;46.30;;;17.50;;
37349;SDS011;23231;52.358;4.926;2023-02-18T01:43:14;52.83;;;16.63;;
37349;SDS011;23231;52.358;4.926;2023-02-18T01:53:41;50.35;;;17.80;;
37349;SDS011;23231;52.358;4.926;2023-02-18T01:58:48;58.13;;;20.50;;
37349;SDS011;23231;52.358;4.926;2023-02-18T02:03:49;59.60;;;20.08;;
37349;SDS011;23231;52.358;4.926;2023-02-18T02:08:50;53.30;;;20.10;;
37349;SDS011;23231;52.358;4.926;2023-02-18T02:14:07;55.35;;;20.80;;
37349;SDS011;23231;52.358;4.926;2023-02-18T02:56:13;55.53;;;20.95;;
37349;SDS011;23231;52.358;4.926;2023-02-18T03:01:22;58.33;;;21.40;;
37349;SDS011;23231;52.358;4.926;2023-02-18T03:12:18;53.97;;;22.15;;
37349;SDS011;23231;52.358;4.926;2023-02-18T03:17:29;54.88;;;21.73;;
37349;SDS011;23231;52.358;4.926;2023-02-18T03:22:31;52.88;;;19.67;;
37349;SDS011;23231;52.358;4.926;2023-02-18T03:32:34;43.15;;;18.60;;
37349;SDS011;23231;52.358;4.926;2023-02-18T03:37:35;40.40;;;16.70;;
37349;SDS011;23231;52.358;4.926;2023-02-18T03:42:38;42.22;;;17.13;;
37349;SDS011;23231;52.358;4.926;2023-02-18T03:47:38;37.42;;;16.35;;
37349;SDS011;23231;52.358;4.926;2023-02-18T03:52:38;36.65;;;15.23;;
37349;SDS011;23231;52.358;4.926;2023-02-18T03:57:39;31.27;;;13.18;;
37349;SDS011;23231;52.358;4.926;2023-02-18T04:02:39;27.17;;;11.98;;
37349;SDS011;23231;52.358;4.926;2023-02-18T04:07:40;26.70;;;11.70;;
37349;SDS011;23231;52.358;4.926;2023-02-18T04:12:41;26.98;;;11.35;;
37349;SDS011;23231;52.358;4.926;2023-02-18T04:17:41;26.60;;;10.38;;
37349;SDS011;23231;52.358;4.926;2023-02-18T04:22:41;25.00;;;10.55;;
37349;SDS011;23231;52.358;4.926;2023-02-18T04:27:42;24.98;;;12.07;;
37349;SDS011;23231;52.358;4.926;2023-02-18T04:32:42;30.27;;;12.05;;
37349;SDS011;23231;52.358;4.926;2023-02-18T04:37:43;33.28;;;14.05;;
37349;SDS011;23231;52.358;4.926;2023-02-18T04:42:43;32.80;;;14.63;;
37349;SDS011;23231;52.358;4.926;2023-02-18T04:47:43;34.58;;;15.35;;
37349;SDS011;23231;52.358;4.926;2023-02-18T04:52:44;40.55;;;15.52;;
37349;SDS011;23231;52.358;4.926;2023-02-18T04:57:44;39.33;;;16.70;;
37349;SDS011;23231;52.358;4.926;2023-02-18T05:02:45;42.88;;;16.00;;
37349;SDS011;23231;52.358;4.926;2023-02-18T05:07:46;37.92;;;15.35;;
37349;SDS011;23231;52.358;4.926;2023-02-18T05:12:46;40.95;;;14.68;;
37349;SDS011;23231;52.358;4.926;2023-02-18T05:17:47;30.40;;;13.27;;
37349;SDS011;23231;52.358;4.926;2023-02-18T05:22:47;32.78;;;12.70;;
37349;SDS011;23231;52.358;4.926;2023-02-18T05:27:47;25.70;;;11.27;;
37349;SDS011;23231;52.358;4.926;2023-02-18T05:32:48;31.83;;;11.25;;
37349;SDS011;23231;52.358;4.926;2023-02-18T05:37:48;27.85;;;10.90;;
37349;SDS011;23231;52.358;4.926;2023-02-18T05:42:48;25.10;;;10.60;;
37349;SDS011;23231;52.358;4.926;2023-02-18T05:47:49;26.85;;;9.98;;
37349;SDS011;23231;52.358;4.926;2023-02-18T05:52:49;21.73;;;9.30;;
37349;SDS011;23231;52.358;4.926;2023-02-18T05:57:50;31.27;;;11.40;;
37349;SDS011;23231;52.358;4.926;2023-02-18T06:02:50;29.80;;;10.30;;
37349;SDS011;23231;52.358;4.926;2023-02-18T06:07:50;30.35;;;9.80;;
37349;SDS011;23231;52.358;4.926;2023-02-18T06:12:51;29.77;;;9.43;;
37349;SDS011;23231;52.358;4.926;2023-02-18T06:17:51;25.10;;;9.60;;
37349;SDS011;23231;52.358;4.926;2023-02-18T06:22:52;23.27;;;9.00;;
37349;SDS011;23231;52.358;4.926;2023-02-18T06:27:52;22.75;;;9.57;;
37349;SDS011;23231;52.358;4.926;2023-02-18T06:32:53;24.55;;;9.63;;
37349;SDS011;23231;52.358;4.926;2023-02-18T06:37:53;31.45;;;10.63;;
37349;SDS011;23231;52.358;4.926;2023-02-18T06:42:53;24.27;;;9.45;;
37349;SDS011;23231;52.358;4.926;2023-02-18T06:47:54;22.40;;;9.40;;
37349;SDS011;23231;52.358;4.926;2023-02-18T06:52:54;24.58;;;9.77;;
37349;SDS011;23231;52.358;4.926;2023-02-18T06:57:55;25.63;;;9.32;;
37349;SDS011;23231;52.358;4.926;2023-02-18T07:02:55;26.83;;;9.52;;
37349;SDS011;23231;52.358;4.926;2023-02-18T07:07:56;22.95;;;8.93;;
37349;SDS011;23231;52.358;4.926;2023-02-18T07:12:56;21.00;;;7.88;;
37349;SDS011;23231;52.358;4.926;2023-02-18T07:17:57;26.25;;;8.68;;
37349;SDS011;23231;52.358;4.926;2023-02-18T07:22:57;23.45;;;7.90;;
37349;SDS011;23231;52.358;4.926;2023-02-18T07:27:57;29.98;;;8.38;;
37349;SDS011;23231;52.358;4.926;2023-02-18T07:32:58;22.02;;;7.90;;
37349;SDS011;23231;52.358;4.926;2023-02-18T07:37:58;29.90;;;7.50;;
37349;SDS011;23231;52.358;4.926;2023-02-18T07:42:59;27.88;;;6.15;;
37349;SDS011;23231;52.358;4.926;2023-02-18T07:47:59;17.13;;;5.07;;
37349;SDS011;23231;52.358;4.926;2023-02-18T07:53:00;27.10;;;5.15;;
37349;SDS011;23231;52.358;4.926;2023-02-18T07:58:00;18.35;;;4.22;;
37349;SDS011;23231;52.358;4.926;2023-02-18T08:03:02;18.40;;;3.47;;
37349;SDS011;23231;52.358;4.926;2023-02-18T08:08:02;18.98;;;4.00;;
37349;SDS011;23231;52.358;4.926;2023-02-18T08:13:03;24.10;;;4.70;;
37349;SDS011;23231;52.358;4.926;2023-02-18T08:18:04;27.35;;;4.00;;
37349;SDS011;23231;52.358;4.926;2023-02-18T08:23:05;20.67;;;3.83;;
37349;SDS011;23231;52.358;4.926;2023-02-18T08:28:05;18.98;;;4.30;;
37349;SDS011;23231;52.358;4.926;2023-02-18T08:33:06;22.27;;;2.95;;
37349;SDS011;23231;52.358;4.926;2023-02-18T08:38:06;15.70;;;2.78;;
37349;SDS011;23231;52.358;4.926;2023-02-18T08:43:06;14.75;;;3.28;;
37349;SDS011;23231;52.358;4.926;2023-02-18T08:48:07;13.60;;;2.78;;
37349;SDS011;23231;52.358;4.926;2023-02-18T08:53:09;15.50;;;2.67;;
37349;SDS011;23231;52.358;4.926;2023-02-18T08:58:09;16.35;;;3.33;;
37349;SDS011;23231;52.358;4.926;2023-02-18T09:03:11;21.65;;;3.03;;
37349;SDS011;23231;52.358;4.926;2023-02-18T09:08:13;13.80;;;2.60;;
37349;SDS011;23231;52.358;4.926;2023-02-18T09:13:13;17.13;;;2.40;;
37349;SDS011;23231;52.358;4.926;2023-02-18T09:18:13;22.23;;;3.10;;
37349;SDS011;23231;52.358;4.926;2023-02-18T09:23:14;16.02;;;3.03;;
37349;SDS011;23231;52.358;4.926;2023-02-18T09:28:15;19.40;;;3.53;;
37349;SDS011;23231;52.358;4.926;2023-02-18T09:33:15;15.60;;;2.90;;
37349;SDS011;23231;52.358;4.926;2023-02-18T09:38:16;14.30;;;2.92;;
37349;SDS011;23231;52.358;4.926;2023-02-18T09:43:21;13.65;;;2.90;;
37349;SDS011;23231;52.358;4.926;2023-02-18T09:48:28;18.13;;;3.67;;
37349;SDS011;23231;52.358;4.926;2023-02-18T09:53:30;15.52;;;3.05;;
37349;SDS011;23231;52.358;4.926;2023-02-18T09:58:31;13.63;;;2.47;;
37349;SDS011;23231;52.358;4.926;2023-02-18T10:03:32;15.18;;;2.58;;
37349;SDS011;23231;52.358;4.926;2023-02-18T10:08:34;20.00;;;3.17;;
37349;SDS011;23231;52.358;4.926;2023-02-18T10:13:35;14.98;;;2.83;;
37349;SDS011;23231;52.358;4.926;2023-02-18T10:18:39;16.42;;;3.30;;
37349;SDS011;23231;52.358;4.926;2023-02-18T10:23:42;20.73;;;3.80;;
37349;SDS011;23231;52.358;4.926;2023-02-18T10:29:13;13.85;;;2.75;;
37349;SDS011;23231;52.358;4.926;2023-02-18T10:34:18;16.80;;;3.05;;
37349;SDS011;23231;52.358;4.926;2023-02-18T10:44:43;17.77;;;3.20;;
37349;SDS011;23231;52.358;4.926;2023-02-18T10:55:17;14.13;;;2.90;;
37349;SDS011;23231;52.358;4.926;2023-02-18T11:00:22;14.40;;;2.80;;
37349;SDS011;23231;52.358;4.926;2023-02-18T11:05:25;18.50;;;3.33;;
37349;SDS011;23231;52.358;4.926;2023-02-18T11:10:30;21.25;;;3.95;;
37349;SDS011;23231;52.358;4.926;2023-02-18T11:15:33;16.08;;;2.88;;
37349;SDS011;23231;52.358;4.926;2023-02-18T11:20:35;14.55;;;2.83;;
37349;SDS011;23231;52.358;4.926;2023-02-18T11:25:38;12.88;;;2.83;;
37349;SDS011;23231;52.358;4.926;2023-02-18T11:30:40;16.65;;;2.90;;
37349;SDS011;23231;52.358;4.926;2023-02-18T11:36:17;13.27;;;2.90;;
37349;SDS011;23231;52.358;4.926;2023-02-18T11:41:46;15.35;;;3.25;;
37349;SDS011;23231;52.358;4.926;2023-02-18T11:57:27;15.88;;;2.80;;
37349;SDS011;23231;52.358;4.926;2023-02-18T12:02:35;12.20;;;2.63;;
37349;SDS011;23231;52.358;4.926;2023-02-18T12:07:44;11.40;;;2.67;;
37349;SDS011;23231;52.358;4.926;2023-02-18T12:44:43;14.18;;;2.70;;
37349;SDS011;23231;52.358;4.926;2023-02-18T13:06:03;13.10;;;3.13;;
37349;SDS011;23231;52.358;4.926;2023-02-18T13:16:44;13.18;;;3.22;;
37349;SDS011;23231;52.358;4.926;2023-02-18T13:21:50;13.88;;;3.15;;
37349;SDS011;23231;52.358;4.926;2023-02-18T13:26:55;14.80;;;3.20;;
37349;SDS011;23231;52.358;4.926;2023-02-18T13:32:06;17.27;;;3.25;;
37349;SDS011;23231;52.358;4.926;2023-02-18T13:37:19;14.52;;;2.85;;
37349;SDS011;23231;52.358;4.926;2023-02-18T13:47:44;13.60;;;3.03;;
37349;SDS011;23231;52.358;4.926;2023-02-18T13:52:45;12.98;;;2.67;;
37349;SDS011;23231;52.358;4.926;2023-02-18T13:57:46;16.48;;;3.17;;
37349;SDS011;23231;52.358;4.926;2023-02-18T14:03:01;11.35;;;3.08;;
37349;SDS011;23231;52.358;4.926;2023-02-18T14:08:39;13.50;;;3.30;;
37349;SDS011;23231;52.358;4.926;2023-02-18T14:13:51;12.50;;;3.17;;
37349;SDS011;23231;52.358;4.926;2023-02-18T14:18:57;14.18;;;3.47;;
37349;SDS011;23231;52.358;4.926;2023-02-18T14:24:00;14.55;;;2.83;;
37349;SDS011;23231;52.358;4.926;2023-02-18T14:29:04;15.95;;;3.13;;
37349;SDS011;23231;52.358;4.926;2023-02-18T14:34:14;18.63;;;3.67;;
37349;SDS011;23231;52.358;4.926;2023-02-18T14:50:21;15.68;;;3.35;;
37349;SDS011;23231;52.358;4.926;2023-02-18T14:55:23;14.40;;;3.30;;
37349;SDS011;23231;52.358;4.926;2023-02-18T15:00:26;10.77;;;4.03;;
37349;SDS011;23231;52.358;4.926;2023-02-18T15:05:31;14.82;;;2.83;;
37349;SDS011;23231;52.358;4.926;2023-02-18T15:10:37;12.90;;;3.47;;
37349;SDS011;23231;52.358;4.926;2023-02-18T15:15:42;17.95;;;3.40;;
37349;SDS011;23231;52.358;4.926;2023-02-18T15:20:43;16.33;;;2.97;;
37349;SDS011;23231;52.358;4.926;2023-02-18T15:25:49;13.65;;;3.10;;
37349;SDS011;23231;52.358;4.926;2023-02-18T15:30:51;12.30;;;3.13;;
37349;SDS011;23231;52.358;4.926;2023-02-18T15:35:51;16.60;;;3.70;;
37349;SDS011;23231;52.358;4.926;2023-02-18T15:41:00;13.32;;;3.45;;
37349;SDS011;23231;52.358;4.926;2023-02-18T15:46:00;20.90;;;3.28;;
37349;SDS011;23231;52.358;4.926;2023-02-18T15:51:05;16.05;;;3.53;;
37349;SDS011;23231;52.358;4.926;2023-02-18T15:56:10;14.93;;;3.90;;
37349;SDS011;23231;52.358;4.926;2023-02-18T16:01:27;18.80;;;3.75;;
37349;SDS011;23231;52.358;4.926;2023-02-18T16:06:29;11.80;;;3.25;;
37349;SDS011;23231;52.358;4.926;2023-02-18T16:11:38;16.52;;;4.32;;
37349;SDS011;23231;52.358;4.926;2023-02-18T16:16:40;24.48;;;4.10;;
37349;SDS011;23231;52.358;4.926;2023-02-18T16:21:43;17.70;;;4.15;;
37349;SDS011;23231;52.358;4.926;2023-02-18T16:26:44;15.85;;;3.72;;
37349;SDS011;23231;52.358;4.926;2023-02-18T16:31:45;16.90;;;4.00;;
37349;SDS011;23231;52.358;4.926;2023-02-18T16:36:46;16.38;;;3.55;;
37349;SDS011;23231;52.358;4.926;2023-02-18T16:42:11;16.08;;;4.40;;
37349;SDS011;23231;52.358;4.926;2023-02-18T16:47:15;15.75;;;3.45;;
37349;SDS011;23231;52.358;4.926;2023-02-18T16:52:16;16.80;;;3.35;;
37349;SDS011;23231;52.358;4.926;2023-02-18T16:57:18;21.80;;;5.35;;
37349;SDS011;23231;52.358;4.926;2023-02-18T17:02:19;18.65;;;4.35;;
37349;SDS011;23231;52.358;4.926;2023-02-18T17:07:20;12.90;;;3.30;;
37349;SDS011;23231;52.358;4.926;2023-02-18T17:12:20;21.27;;;3.38;;
37349;SDS011;23231;52.358;4.926;2023-02-18T17:17:21;19.35;;;4.60;;
37349;SDS011;23231;52.358;4.926;2023-02-18T17:22:22;18.50;;;4.57;;
37349;SDS011;23231;52.358;4.926;2023-02-18T17:27:22;22.77;;;5.65;;
37349;SDS011;23231;52.358;4.926;2023-02-18T17:32:23;20.85;;;4.80;;
37349;SDS011;23231;52.358;4.926;2023-02-18T17:37:24;17.15;;;4.07;;
37349;SDS011;23231;52.358;4.926;2023-02-18T17:42:25;25.13;;;6.25;;
37349;SDS011;23231;52.358;4.926;2023-02-18T17:47:26;20.73;;;5.50;;
37349;SDS011;23231;52.358;4.926;2023-02-18T17:52:28;16.10;;;5.70;;
37349;SDS011;23231;52.358;4.926;2023-02-18T17:57:29;19.88;;;5.55;;
37349;SDS011;23231;52.358;4.926;2023-02-18T18:02:30;23.25;;;6.25;;
37349;SDS011;23231;52.358;4.926;2023-02-18T18:07:30;22.95;;;5.90;;
37349;SDS011;23231;52.358;4.926;2023-02-18T18:12:30;21.77;;;6.50;;
37349;SDS011;23231;52.358;4.926;2023-02-18T18:17:31;20.45;;;6.10;;
37349;SDS011;23231;52.358;4.926;2023-02-18T18:22:31;28.13;;;7.40;;
37349;SDS011;23231;52.358;4.926;2023-02-18T18:27:32;31.98;;;8.07;;
37349;SDS011;23231;52.358;4.926;2023-02-18T18:32:32;29.83;;;8.23;;
37349;SDS011;23231;52.358;4.926;2023-02-18T18:37:32;37.65;;;8.95;;
37349;SDS011;23231;52.358;4.926;2023-02-18T18:42:33;31.65;;;9.65;;
37349;SDS011;23231;52.358;4.926;2023-02-18T18:47:33;32.80;;;10.32;;
37349;SDS011;23231;52.358;4.926;2023-02-18T18:52:33;39.67;;;10.35;;
37349;SDS011;23231;52.358;4.926;2023-02-18T18:57:34;33.08;;;11.45;;
37349;SDS011;23231;52.358;4.926;2023-02-18T19:02:34;39.72;;;13.57;;
37349;SDS011;23231;52.358;4.926;2023-02-18T19:07:35;42.22;;;12.93;;
37349;SDS011;23231;52.358;4.926;2023-02-18T19:12:36;31.65;;;12.77;;
37349;SDS011;23231;52.358;4.926;2023-02-18T19:17:37;37.13;;;11.95;;
37349;SDS011;23231;52.358;4.926;2023-02-18T19:22:37;35.17;;;12.40;;
37349;SDS011;23231;52.358;4.926;2023-02-18T19:27:41;40.53;;;11.63;;
37349;SDS011;23231;52.358;4.926;2023-02-18T19:32:43;34.10;;;11.32;;
37349;SDS011;23231;52.358;4.926;2023-02-18T19:37:44;26.42;;;10.82;;
37349;SDS011;23231;52.358;4.926;2023-02-18T19:42:45;36.28;;;10.52;;
37349;SDS011;23231;52.358;4.926;2023-02-18T19:47:46;24.58;;;9.05;;
37349;SDS011;23231;52.358;4.926;2023-02-18T19:52:47;34.30;;;9.13;;
37349;SDS011;23231;52.358;4.926;2023-02-18T19:57:48;29.75;;;9.23;;
37349;SDS011;23231;52.358;4.926;2023-02-18T20:02:48;29.50;;;8.18;;
37349;SDS011;23231;52.358;4.926;2023-02-18T20:07:49;31.02;;;8.93;;
37349;SDS011;23231;52.358;4.926;2023-02-18T20:12:51;28.15;;;9.93;;
37349;SDS011;23231;52.358;4.926;2023-02-18T20:17:52;26.45;;;9.68;;
37349;SDS011;23231;52.358;4.926;2023-02-18T20:22:52;28.33;;;9.48;;
37349;SDS011;23231;52.358;4.926;2023-02-18T20:27:53;21.58;;;9.80;;
37349;SDS011;23231;52.358;4.926;2023-02-18T20:32:53;30.70;;;12.00;;
37349;SDS011;23231;52.358;4.926;2023-02-18T20:37:53;33.88;;;10.95;;
37349;SDS011;23231;52.358;4.926;2023-02-18T20:42:54;32.53;;;11.73;;
37349;SDS011;23231;52.358;4.926;2023-02-18T20:47:54;30.33;;;10.57;;
37349;SDS011;23231;52.358;4.926;2023-02-18T20:52:55;27.60;;;10.52;;
37349;SDS011;23231;52.358;4.926;2023-02-18T20:57:55;33.65;;;9.27;;
37349;SDS011;23231;52.358;4.926;2023-02-18T21:02:55;34.00;;;10.18;;
37349;SDS011;23231;52.358;4.926;2023-02-18T21:07:56;31.23;;;8.52;;
37349;SDS011;23231;52.358;4.926;2023-02-18T21:12:56;26.15;;;8.68;;
37349;SDS011;23231;52.358;4.926;2023-02-18T21:17:57;38.80;;;8.77;;
37349;SDS011;23231;52.358;4.926;2023-02-18T21:22:57;32.03;;;8.48;;
37349;SDS011;23231;52.358;4.926;2023-02-18T21:27:58;34.38;;;8.90;;
37349;SDS011;23231;52.358;4.926;2023-02-18T21:32:59;23.67;;;7.47;;
37349;SDS011;23231;52.358;4.926;2023-02-18T21:37:59;26.40;;;7.07;;
37349;SDS011;23231;52.358;4.926;2023-02-18T21:43:00;34.92;;;7.22;;
37349;SDS011;23231;52.358;4.926;2023-02-18T21:48:00;29.27;;;7.60;;
37349;SDS011;23231;52.358;4.926;2023-02-18T21:53:21;34.08;;;7.30;;
37349;SDS011;23231;52.358;4.926;2023-02-18T21:58:21;31.33;;;6.88;;
37349;SDS011;23231;52.358;4.926;2023-02-18T22:03:21;37.30;;;7.32;;
37349;SDS011;23231;52.358;4.926;2023-02-18T22:08:22;31.05;;;6.45;;
37349;SDS011;23231;52.358;4.926;2023-02-18T22:13:22;29.30;;;7.63;;
37349;SDS011;23231;52.358;4.926;2023-02-18T22:18:23;27.42;;;6.50;;
37349;SDS011;23231;52.358;4.926;2023-02-18T22:23:23;29.02;;;6.72;;
37349;SDS011;23231;52.358;4.926;2023-02-18T22:28:24;25.20;;;6.60;;
37349;SDS011;23231;52.358;4.926;2023-02-18T22:33:24;25.00;;;7.38;;
37349;SDS011;23231;52.358;4.926;2023-02-18T22:38:25;25.38;;;6.55;;
37349;SDS011;23231;52.358;4.926;2023-02-18T22:43:25;24.73;;;6.68;;
37349;SDS011;23231;52.358;4.926;2023-02-18T22:48:26;25.90;;;6.93;;
37349;SDS011;23231;52.358;4.926;2023-02-18T22:53:26;21.90;;;6.88;;
37349;SDS011;23231;52.358;4.926;2023-02-18T22:58:27;25.65;;;6.35;;
37349;SDS011;23231;52.358;4.926;2023-02-18T23:03:27;26.40;;;5.97;;
37349;SDS011;23231;52.358;4.926;2023-02-18T23:08:28;20.85;;;5.78;;
37349;SDS011;23231;52.358;4.926;2023-02-18T23:13:29;23.23;;;5.78;;
37349;SDS011;23231;52.358;4.926;2023-02-18T23:18:29;20.42;;;6.40;;
37349;SDS011;23231;52.358;4.926;2023-02-18T23:23:30;22.48;;;6.80;;
37349;SDS011;23231;52.358;4.926;2023-02-18T23:28:31;21.58;;;5.97;;
37349;SDS011;23231;52.358;4.926;2023-02-18T23:33:46;23.70;;;6.53;;
37349;SDS011;23231;52.358;4.926;2023-02-18T23:38:51;29.30;;;6.28;;
37349;SDS011;23231;52.358;4.926;2023-02-18T23:43:53;18.65;;;5.60;;
37349;SDS011;23231;52.358;4.926;2023-02-18T23:48:54;19.10;;;6.22;;
37349;SDS011;23231;52.358;4.926;2023-02-18T23:53:54;17.98;;;5.90;;
37349;SDS011;23231;52.358;4.926;2023-02-18T23:58:56;21.10;;;6.30;;
